Time;durP1;ratioP1;P1;durP2;ratioP2;P2;SDS_P1;SDS_P2;PMS_P1;PMS_P2;Temp;Humidity;BMP_temperature;BMP_pressure;BME280_temperature;BME280_humidity;BME280_pressure;Samples;Min_cycle;Max_cycle;Signal;HPM_P1;HPM_P2
2022/08/12 00:45:14;;;;;;;0.52;0.52;;;18.90;92.00;;;;;;5033167;28;20463;-59
2022/08/12 00:47:41;;;;;;;1.52;0.60;;;18.90;92.10;;;;;;5033401;28;20465;-59
2022/08/12 00:50:16;;;;;;;0.80;0.80;;;18.80;92.10;;;;;;5033238;28;20426;-59
2022/08/12 00:52:49;;;;;;;0.55;0.55;;;18.80;92.30;;;;;;5013154;28;20527;-59
2022/08/12 00:55:18;;;;;;;0.80;0.80;;;18.80;92.30;;;;;;5017222;28;20431;-59
2022/08/12 00:57:47;;;;;;;0.60;0.60;;;18.70;92.40;;;;;;5031351;28;20430;-59
2022/08/12 01:00:21;;;;;;;0.45;0.45;;;18.60;92.50;;;;;;5032917;28;20449;-59
2022/08/12 01:02:56;;;;;;;0.50;0.50;;;18.50;92.50;;;;;;5032968;28;20435;-59
2022/08/12 01:13:48;;;;;;;0.67;0.67;;;18.40;92.70;;;;;;5011157;28;20436;-59
2022/08/12 01:16:21;;;;;;;0.60;0.60;;;18.40;92.60;;;;;;5015009;28;21177;-60
2022/08/12 01:18:50;;;;;;;1.15;0.43;;;18.40;92.60;;;;;;5013002;28;20538;-59
2022/08/12 01:21:26;;;;;;;1.40;0.93;;;18.40;93.00;;;;;;5028972;28;20786;-59
2022/08/12 01:24:30;;;;;;;0.50;0.50;;;18.50;92.60;;;;;;5032283;28;20431;-59
2022/08/12 01:27:02;;;;;;;0.65;0.65;;;18.40;92.60;;;;;;5013341;28;20448;-59
2022/08/12 01:29:42;;;;;;;0.45;0.45;;;18.30;92.70;;;;;;5012372;28;20895;-59
2022/08/12 01:32:17;;;;;;;0.40;0.40;;;18.30;92.80;;;;;;5012858;28;20487;-59
2022/08/12 01:34:53;;;;;;;0.70;0.70;;;18.30;92.80;;;;;;5012374;28;20521;-59
2022/08/12 01:37:24;;;;;;;0.52;0.52;;;18.30;92.80;;;;;;5031207;28;20426;-59
2022/08/12 01:39:55;;;;;;;0.50;0.50;;;18.20;92.80;;;;;;5032238;28;20874;-59
2022/08/12 01:42:47;;;;;;;0.50;0.50;;;18.30;92.90;;;;;;5017501;28;20899;-59
2022/08/12 01:45:16;;;;;;;0.60;0.60;;;18.20;92.90;;;;;;5015263;28;20820;-59
2022/08/12 01:48:13;;;;;;;0.60;0.60;;;18.10;93.00;;;;;;5012428;28;20459;-59
2022/08/12 01:50:55;;;;;;;0.50;0.50;;;18.20;93.00;;;;;;5011407;28;20535;-59
2022/08/12 01:53:49;;;;;;;0.60;0.60;;;18.20;93.00;;;;;;5011878;28;20429;-59
2022/08/12 01:56:25;;;;;;;0.50;0.50;;;18.10;93.00;;;;;;5012271;28;20432;-59
2022/08/12 02:01:42;;;;;;;0.57;0.57;;;18.20;92.80;;;;;;5024225;28;20510;-59
2022/08/12 02:11:33;;;;;;;0.60;0.60;;;18.30;92.70;;;;;;5031862;28;20430;-58
2022/08/12 02:14:30;;;;;;;0.90;0.70;;;18.30;92.80;;;;;;5031204;28;20823;-58
2022/08/12 02:17:38;;;;;;;0.60;0.60;;;18.30;92.80;;;;;;5031662;28;20533;-58
2022/08/12 02:20:47;;;;;;;0.50;0.50;;;18.30;92.80;;;;;;5011713;28;20973;-58
2022/08/12 02:23:24;;;;;;;0.50;0.50;;;18.30;92.80;;;;;;5011388;28;20444;-58
2022/08/12 02:25:55;;;;;;;0.50;0.50;;;18.20;92.90;;;;;;5010422;28;20464;-59
2022/08/12 02:28:23;;;;;;;0.52;0.50;;;18.20;93.00;;;;;;5011693;28;20429;-58
2022/08/12 02:30:50;;;;;;;0.60;0.60;;;18.10;93.10;;;;;;5011577;28;20862;-58
2022/08/12 02:33:17;;;;;;;0.80;0.80;;;18.00;93.20;;;;;;5011136;28;20779;-59
2022/08/12 02:35:44;;;;;;;0.70;0.70;;;17.90;93.30;;;;;;5013582;28;20460;-58
2022/08/12 02:38:11;;;;;;;0.57;0.57;;;17.80;93.40;;;;;;5011153;28;20517;-58
2022/08/12 02:40:44;;;;;;;0.65;0.65;;;17.60;93.70;;;;;;5011435;28;20429;-59
2022/08/12 02:43:26;;;;;;;0.50;0.50;;;17.50;93.80;;;;;;5011070;28;20444;-58
2022/08/12 02:46:01;;;;;;;0.70;0.70;;;17.50;93.90;;;;;;5021792;28;20439;-59
2022/08/12 02:48:50;;;;;;;0.50;0.50;;;17.50;94.00;;;;;;5037621;28;20440;-58
2022/08/12 02:51:29;;;;;;;0.60;0.60;;;17.50;94.10;;;;;;5040090;28;20461;-58
2022/08/12 02:53:59;;;;;;;0.60;0.60;;;17.50;94.10;;;;;;5050026;28;20433;-59
2022/08/12 02:56:39;;;;;;;0.60;0.60;;;17.40;94.10;;;;;;5050653;28;20449;-58
2022/08/12 02:59:20;;;;;;;0.50;0.50;;;17.30;94.30;;;;;;5064707;28;20452;-59
2022/08/12 03:01:53;;;;;;;0.60;0.60;;;17.20;94.30;;;;;;5039411;28;20422;-59
2022/08/12 03:04:29;;;;;;;0.68;0.68;;;17.20;94.50;;;;;;5021064;28;20433;-59
2022/08/12 03:07:22;;;;;;;0.60;0.60;;;17.20;94.60;;;;;;5010745;28;20512;-58
2022/08/12 03:10:08;;;;;;;0.65;0.65;;;17.10;94.60;;;;;;5011219;28;20487;-58
2022/08/12 03:12:45;;;;;;;0.73;0.73;;;17.00;94.70;;;;;;5022925;28;20462;-58
2022/08/12 03:15:22;;;;;;;0.65;0.65;;;16.90;94.80;;;;;;5029501;28;20437;-58
2022/08/12 03:18:13;;;;;;;0.80;0.80;;;16.90;95.00;;;;;;5010622;28;20483;-58
2022/08/12 03:20:58;;;;;;;0.80;0.60;;;16.90;95.00;;;;;;5010214;28;20462;-58
2022/08/12 03:23:26;;;;;;;0.60;0.60;;;16.80;95.10;;;;;;5010215;28;20495;-59
2022/08/12 03:25:59;;;;;;;0.80;0.80;;;16.80;95.20;;;;;;5010553;28;20439;-58
2022/08/12 03:31:28;;;;;;;0.82;0.82;;;16.80;95.30;;;;;;5010720;28;20454;-58
2022/08/12 03:34:07;;;;;;;0.50;0.50;;;16.80;95.20;;;;;;5023474;28;20825;-58
2022/08/12 03:36:40;;;;;;;0.45;0.45;;;16.90;95.20;;;;;;5029973;28;20547;-58
2022/08/12 03:39:39;;;;;;;0.60;0.60;;;17.00;95.10;;;;;;5061890;28;20463;-62
2022/08/12 03:42:31;;;;;;;0.47;0.47;;;17.00;95.10;;;;;;5030000;28;20469;-59
2022/08/12 04:02:14;;;;;;;0.47;0.47;;;17.00;95.30;;;;;;5031498;28;20450;-59
2022/08/12 04:04:44;;;;;;;0.60;0.60;;;16.90;95.40;;;;;;5024114;28;20459;-59
2022/08/12 04:07:12;;;;;;;0.40;0.40;;;16.90;95.30;;;;;;5031606;28;20505;-59
2022/08/12 04:09:42;;;;;;;0.50;0.50;;;16.90;95.40;;;;;;5045701;28;20431;-59
2022/08/12 04:15:00;;;;;;;0.60;0.60;;;16.70;95.50;;;;;;5054575;28;20523;-59
2022/08/12 04:17:27;;;;;;;0.50;0.50;;;16.50;95.60;;;;;;5038232;28;20467;-59
2022/08/12 04:20:00;;;;;;;0.50;0.50;;;16.40;95.90;;;;;;5016502;28;20439;-59
2022/08/12 04:22:31;;;;;;;1.15;0.63;;;16.40;96.00;;;;;;5016335;28;20433;-59
2022/08/12 04:25:02;;;;;;;0.90;0.73;;;16.50;96.10;;;;;;5015698;28;20432;-59
2022/08/12 04:27:30;;;;;;;0.50;0.50;;;16.40;96.10;;;;;;5048242;28;20482;-59
2022/08/12 04:30:00;;;;;;;0.43;0.43;;;16.40;96.20;;;;;;5016373;28;20436;-59
2022/08/12 04:32:49;;;;;;;0.60;0.60;;;16.30;96.20;;;;;;5015441;28;20431;-59
2022/08/12 04:35:16;;;;;;;0.95;0.60;;;16.30;96.40;;;;;;5016054;28;20440;-59
2022/08/12 04:37:45;;;;;;;1.27;0.85;;;16.30;96.60;;;;;;5016142;28;20463;-59
2022/08/12 04:40:29;;;;;;;1.15;0.60;;;16.30;96.60;;;;;;5016188;28;20513;-58
2022/08/12 04:42:57;;;;;;;0.60;0.60;;;16.30;96.70;;;;;;5015751;28;20432;-58
2022/08/12 04:45:23;;;;;;;0.67;0.67;;;16.40;96.80;;;;;;5015957;28;20436;-59
2022/08/12 04:47:51;;;;;;;0.60;0.60;;;16.50;96.60;;;;;;5016102;28;20464;-58
2022/08/12 04:50:21;;;;;;;0.80;0.80;;;16.70;96.60;;;;;;5016085;28;20436;-59
2022/08/12 04:53:06;;;;;;;0.60;0.60;;;16.80;96.10;;;;;;5015948;28;20441;-59
2022/08/12 04:55:36;;;;;;;0.40;0.40;;;16.90;96.10;;;;;;5021225;28;20518;-59
2022/08/12 04:58:03;;;;;;;0.50;0.50;;;16.90;96.00;;;;;;5035633;28;20426;-59
2022/08/12 05:00:30;;;;;;;0.50;0.50;;;17.10;95.90;;;;;;5036061;28;20497;-59
2022/08/12 05:02:57;;;;;;;0.70;0.70;;;17.20;95.90;;;;;;5035478;28;20480;-59
2022/08/12 05:05:24;;;;;;;0.85;0.40;;;17.30;95.70;;;;;;5034426;28;20488;-59
2022/08/12 05:07:53;;;;;;;0.82;0.50;;;17.40;95.40;;;;;;5035244;28;20410;-59
2022/08/12 05:10:22;;;;;;;0.80;0.60;;;17.40;95.50;;;;;;5028537;28;20915;-59
2022/08/12 05:13:11;;;;;;;0.57;0.57;;;17.50;95.60;;;;;;5015719;28;20433;-59
2022/08/12 05:15:39;;;;;;;0.47;0.47;;;17.50;95.60;;;;;;5015939;28;20432;-59
2022/08/12 05:18:26;;;;;;;0.70;0.70;;;17.50;95.60;;;;;;5016123;28;20779;-59
2022/08/12 05:20:57;;;;;;;0.52;0.52;;;17.60;95.70;;;;;;5015614;28;20428;-59
2022/08/12 05:23:24;;;;;;;0.70;0.70;;;17.70;95.60;;;;;;5025145;28;20829;-59
2022/08/12 05:25:55;;;;;;;0.88;0.75;;;17.80;95.40;;;;;;5032479;28;20427;-59
2022/08/12 05:28:24;;;;;;;0.57;0.57;;;18.00;95.40;;;;;;5032542;28;20945;-59
2022/08/12 05:30:50;;;;;;;0.50;0.50;;;18.10;95.10;;;;;;5032487;28;20920;-59
2022/08/12 05:33:17;;;;;;;0.50;0.50;;;18.20;95.40;;;;;;5030601;28;20850;-59
2022/08/12 05:35:46;;;;;;;0.77;0.77;;;18.30;95.20;;;;;;5032041;28;20927;-59
2022/08/12 05:41:17;;;;;;;0.50;0.50;;;19.00;94.60;;;;;;5032225;28;20427;-59
2022/08/12 05:43:57;;;;;;;0.60;0.60;;;19.40;94.20;;;;;;5031092;28;20917;-59
2022/08/12 05:46:29;;;;;;;0.60;0.60;;;19.50;93.90;;;;;;5032552;28;20470;-58
2022/08/12 05:48:59;;;;;;;0.50;0.50;;;19.50;94.10;;;;;;5030573;28;20438;-59
2022/08/12 05:51:29;;;;;;;0.68;0.65;;;19.80;94.30;;;;;;5032199;28;20435;-59
2022/08/12 05:54:07;;;;;;;0.68;0.68;;;20.50;93.90;;;;;;5060325;28;20513;-59
2022/08/12 05:56:35;;;;;;;0.45;0.45;;;21.50;93.20;;;;;;5030478;28;20431;-59
2022/08/12 05:59:08;;;;;;;0.80;0.80;;;22.20;92.50;;;;;;5032018;28;20426;-59
2022/08/12 06:01:35;;;;;;;0.60;0.60;;;23.00;91.70;;;;;;5024645;28;20436;-59
2022/08/12 06:04:22;;;;;;;0.57;0.57;;;23.50;91.30;;;;;;5011484;28;20783;-59
2022/08/12 06:06:52;;;;;;;0.70;0.70;;;24.10;90.80;;;;;;5011728;28;21011;-59
2022/08/12 06:09:21;;;;;;;0.50;0.50;;;24.30;90.20;;;;;;5012112;28;20502;-59
2022/08/12 06:11:50;;;;;;;1.00;0.50;;;24.60;89.50;;;;;;5012002;28;20909;-59
2022/08/12 06:14:35;;;;;;;0.60;0.60;;;24.90;88.60;;;;;;5014658;28;20504;-59
2022/08/12 06:17:03;;;;;;;0.70;0.70;;;25.20;88.90;;;;;;5031798;28;20897;-59
2022/08/12 06:19:30;;;;;;;0.60;0.60;;;25.50;87.80;;;;;;5031824;28;20521;-60
2022/08/12 06:22:17;;;;;;;1.00;0.60;;;25.40;87.70;;;;;;5031521;28;20419;-59
2022/08/12 06:24:48;;;;;;;0.50;0.50;;;25.50;87.10;;;;;;5030858;28;20453;-59
2022/08/12 06:27:17;;;;;;;0.47;0.47;;;25.60;87.30;;;;;;5031625;28;20427;-59
2022/08/12 06:29:44;;;;;;;0.70;0.70;;;25.90;86.40;;;;;;5016838;28;20438;-59
2022/08/12 06:32:30;;;;;;;0.50;0.50;;;26.10;85.80;;;;;;5011624;28;20429;-60
2022/08/12 06:34:58;;;;;;;0.50;0.50;;;26.10;85.80;;;;;;5011062;28;20443;-60
2022/08/12 06:37:48;;;;;;;0.57;0.57;;;26.30;86.00;;;;;;5011036;28;20452;-60
2022/08/12 06:43:09;;;;;;;0.40;0.40;;;26.80;85.00;;;;;;5031478;28;20429;-60
2022/08/12 06:45:44;;;;;;;0.70;0.70;;;27.50;84.70;;;;;;5024756;28;20474;-60
2022/08/12 06:48:13;;;;;;;0.55;0.55;;;27.80;83.30;;;;;;5011344;28;20531;-59
2022/08/12 06:50:41;;;;;;;1.33;0.65;;;27.80;82.90;;;;;;5011479;28;20433;-60
2022/08/12 06:53:09;;;;;;;0.50;0.50;;;27.70;82.00;;;;;;5010835;28;20437;-60
2022/08/12 06:55:38;;;;;;;0.52;0.52;;;27.90;81.90;;;;;;5011404;28;20791;-60
2022/08/12 06:58:24;;;;;;;0.70;0.70;;;28.10;81.60;;;;;;5010867;28;20432;-60
2022/08/12 07:00:51;;;;;;;0.47;0.47;;;27.50;83.00;;;;;;5021799;28;20486;-60
2022/08/12 07:03:26;;;;;;;0.43;0.43;;;27.80;82.30;;;;;;5030497;28;20504;-60
2022/08/12 07:05:58;;;;;;;0.50;0.50;;;27.60;82.00;;;;;;5030643;28;20435;-61
2022/08/12 07:08:32;;;;;;;0.70;0.57;;;27.90;82.10;;;;;;5029885;28;20456;-60
2022/08/12 07:11:02;;;;;;;0.60;0.60;;;28.10;81.70;;;;;;5030833;28;20431;-60
2022/08/12 07:13:57;;;;;;;0.55;0.55;;;28.10;81.80;;;;;;5061049;28;20435;-59
2022/08/12 07:16:51;;;;;;;0.50;0.50;;;28.30;80.90;;;;;;5028821;28;20801;-60
2022/08/12 07:19:19;;;;;;;1.20;0.60;;;28.50;81.70;;;;;;5030459;28;20574;-60
2022/08/12 07:21:46;;;;;;;0.50;0.50;;;28.60;80.80;;;;;;5030225;28;21088;-60
2022/08/12 07:24:28;;;;;;;0.70;0.70;;;28.30;80.70;;;;;;5025183;28;20428;-59
2022/08/12 07:26:55;;;;;;;0.50;0.50;;;28.40;80.90;;;;;;5013070;28;20479;-60
2022/08/12 07:29:22;;;;;;;0.40;0.40;;;28.70;80.70;;;;;;5030135;28;20473;-60
2022/08/12 07:32:17;;;;;;;0.50;0.50;;;29.00;79.90;;;;;;5054857;28;20431;-60
2022/08/12 07:34:46;;;;;;;0.47;0.47;;;29.50;79.90;;;;;;5029751;28;20492;-60
2022/08/12 07:37:16;;;;;;;0.30;0.30;;;29.50;79.30;;;;;;5030052;28;20439;-60
2022/08/12 07:39:43;;;;;;;0.50;0.50;;;30.00;78.70;;;;;;5030295;28;20469;-60
2022/08/12 07:42:25;;;;;;;0.50;0.50;;;30.30;77.40;;;;;;5029950;28;20925;-59
2022/08/12 07:44:52;;;;;;;0.75;0.57;;;29.70;78.30;;;;;;5013531;28;20519;-59
2022/08/12 07:47:19;;;;;;;0.50;0.50;;;29.20;78.00;;;;;;5010358;28;20519;-59
2022/08/12 07:49:49;;;;;;;0.35;0.35;;;28.90;79.30;;;;;;5009455;28;20519;-59
2022/08/12 07:52:33;;;;;;;0.50;0.50;;;28.40;78.90;;;;;;5010239;28;20471;-59
2022/08/12 07:55:01;;;;;;;0.50;0.50;;;28.40;79.00;;;;;;5009575;28;20460;-59
2022/08/12 07:57:28;;;;;;;0.40;0.40;;;28.70;79.10;;;;;;5009420;28;20548;-59
2022/08/12 08:00:05;;;;;;;0.50;0.50;;;28.20;79.10;;;;;;5025259;28;20480;-59
2022/08/12 08:02:35;;;;;;;0.30;0.30;;;28.20;79.30;;;;;;5058906;28;20431;-59
2022/08/12 08:05:03;;;;;;;0.47;0.47;;;27.90;80.30;;;;;;5029395;28;20458;-60
2022/08/12 08:07:30;;;;;;;0.40;0.40;;;27.90;80.50;;;;;;5029595;28;20446;-60
2022/08/12 08:09:59;;;;;;;0.43;0.43;;;27.60;79.90;;;;;;5029852;28;20793;-59
2022/08/12 08:15:15;;;;;;;0.30;0.30;;;27.60;80.10;;;;;;5025148;28;20858;-60
2022/08/12 08:18:03;;;;;;;0.45;0.45;;;27.90;80.20;;;;;;5014076;28;20434;-60
2022/08/12 08:20:34;;;;;;;0.50;0.50;;;28.20;80.10;;;;;;5041300;28;20870;-59
2022/08/12 08:23:06;;;;;;;0.40;0.40;;;28.50;79.10;;;;;;5049062;28;20858;-59
2022/08/12 08:25:37;;;;;;;0.50;0.50;;;28.80;79.70;;;;;;5047081;28;20806;-59
2022/08/12 08:28:10;;;;;;;0.40;0.40;;;28.70;78.60;;;;;;5060613;28;20462;-59
2022/08/12 08:30:42;;;;;;;0.40;0.40;;;29.40;77.80;;;;;;5037958;28;20541;-59
2022/08/12 08:33:13;;;;;;;0.60;0.60;;;29.90;77.90;;;;;;5048980;28;20839;-60
2022/08/12 08:36:00;;;;;;;1.50;0.40;;;30.20;76.70;;;;;;5041882;28;20514;-59
2022/08/12 08:38:28;;;;;;;0.37;0.37;;;29.60;76.70;;;;;;5029461;28;20431;-60
2022/08/12 08:44:09;;;;;;;0.50;0.50;;;29.70;76.40;;;;;;5028636;28;20449;-59
2022/08/12 08:46:37;;;;;;;0.50;0.50;;;29.60;76.60;;;;;;5027189;28;20442;-59
2022/08/12 08:49:04;;;;;;;0.30;0.30;;;29.40;77.00;;;;;;5009659;28;20432;-59
2022/08/12 08:51:32;;;;;;;0.40;0.40;;;29.70;76.00;;;;;;5009691;28;20444;-60
2022/08/12 08:53:59;;;;;;;0.40;0.40;;;29.20;75.80;;;;;;5009336;28;20432;-60
2022/08/12 08:56:28;;;;;;;0.60;0.60;;;29.70;76.10;;;;;;5009311;28;20479;-59
2022/08/12 08:58:56;;;;;;;0.30;0.30;;;29.50;75.70;;;;;;5009553;28;20867;-59
2022/08/12 09:01:26;;;;;;;0.30;0.30;;;29.60;76.90;;;;;;5015648;28;20503;-60
2022/08/12 09:04:04;;;;;;;0.30;0.30;;;29.00;75.50;;;;;;5033593;28;20429;-60
2022/08/12 09:06:55;;;;;;;0.35;0.35;;;28.90;75.10;;;;;;5022485;28;20438;-59
2022/08/12 09:09:25;;;;;;;0.40;0.40;;;28.70;76.40;;;;;;5013402;28;20432;-59
2022/08/12 09:15:02;;;;;;;0.40;0.40;;;28.50;77.20;;;;;;5012316;28;20510;-60
2022/08/12 09:17:56;;;;;;;0.30;0.30;;;28.80;77.00;;;;;;5012984;28;20434;-59
2022/08/12 09:20:27;;;;;;;0.43;0.43;;;29.30;74.70;;;;;;5012823;28;20467;-60
2022/08/12 09:22:56;;;;;;;0.40;0.40;;;29.80;74.80;;;;;;5028442;28;20517;-60
2022/08/12 09:25:28;;;;;;;0.50;0.50;;;30.00;74.30;;;;;;5032685;28;20465;-60
2022/08/12 09:28:00;;;;;;;0.35;0.35;;;29.80;75.00;;;;;;5032316;28;20445;-60
2022/08/12 09:30:51;;;;;;;0.40;0.40;;;30.10;75.00;;;;;;5030173;28;20437;-60
2022/08/12 09:33:18;;;;;;;0.40;0.40;;;30.40;75.40;;;;;;5032394;28;20534;-60
2022/08/12 09:36:06;;;;;;;0.50;0.50;;;30.60;73.80;;;;;;5032424;28;20513;-61
2022/08/12 09:38:32;;;;;;;0.47;0.47;;;29.90;73.60;;;;;;5032462;28;20430;-61
2022/08/12 09:41:01;;;;;;;0.43;0.43;;;30.00;74.70;;;;;;5032425;28;20431;-60
2022/08/12 09:46:54;;;;;;;0.35;0.35;;;30.20;72.70;;;;;;5012384;28;20417;-60
2022/08/12 09:49:23;;;;;;;0.40;0.40;;;29.30;73.60;;;;;;5012467;28;20432;-60
2022/08/12 09:51:53;;;;;;;0.32;0.32;;;29.60;74.70;;;;;;5012411;28;20476;-60
2022/08/12 09:54:24;;;;;;;0.40;0.40;;;29.90;72.40;;;;;;5012002;28;20526;-60
2022/08/12 09:57:06;;;;;;;0.30;0.30;;;29.50;71.70;;;;;;5030622;28;20461;-60
2022/08/12 09:59:55;;;;;;;0.60;0.60;;;29.70;73.00;;;;;;5026051;28;20425;-60
2022/08/12 10:03:15;;;;;;;0.40;0.40;;;29.80;73.20;;;;;;5012194;28;20447;-60
2022/08/12 10:06:00;;;;;;;0.98;0.38;;;30.10;72.70;;;;;;5008983;28;20969;-60
2022/08/12 10:08:47;;;;;;;1.08;0.60;;;30.50;72.10;;;;;;5007427;28;20507;-60
2022/08/12 10:14:25;;;;;;;0.63;0.40;;;30.80;71.30;;;;;;5007352;28;20428;-59
2022/08/12 10:17:01;;;;;;;0.40;0.40;;;31.10;69.90;;;;;;5008660;28;20464;-60
2022/08/12 10:19:38;;;;;;;0.30;0.30;;;30.70;70.40;;;;;;5009087;28;20472;-60
2022/08/12 10:22:19;;;;;;;0.40;0.40;;;30.50;70.00;;;;;;5008754;28;20443;-61
2022/08/12 10:31:00;;;;;;;0.50;0.50;;;31.50;69.90;;;;;;4989385;28;20442;-59
2022/08/12 10:33:32;;;;;;;0.32;0.32;;;31.50;68.50;;;;;;4988382;28;20438;-60
2022/08/12 10:36:00;;;;;;;0.40;0.40;;;31.00;70.70;;;;;;4989029;28;20430;-60
2022/08/12 10:38:28;;;;;;;0.47;0.47;;;31.20;69.90;;;;;;4989245;28;20521;-61
2022/08/12 10:44:12;;;;;;;0.30;0.30;;;30.80;70.50;;;;;;5011048;28;20911;-60
2022/08/12 10:46:44;;;;;;;0.40;0.40;;;30.80;70.50;;;;;;5011569;28;20435;-60
2022/08/12 10:49:16;;;;;;;0.40;0.40;;;30.40;69.30;;;;;;5011361;28;20475;-60
2022/08/12 10:52:06;;;;;;;0.40;0.40;;;30.50;69.70;;;;;;5011465;28;20463;-61
2022/08/12 10:54:54;;;;;;;0.40;0.40;;;30.50;70.20;;;;;;5010736;28;20425;-60
2022/08/12 10:57:25;;;;;;;0.40;0.40;;;30.50;69.50;;;;;;5025622;28;20636;-61
2022/08/12 11:00:13;;;;;;;0.38;0.38;;;30.80;70.40;;;;;;5013336;28;20420;-61
2022/08/12 11:03:00;;;;;;;0.50;0.50;;;31.70;70.10;;;;;;5029714;28;20416;-60
2022/08/12 11:05:47;;;;;;;0.40;0.40;;;32.20;67.70;;;;;;5030414;28;20427;-61
2022/08/12 11:08:38;;;;;;;0.30;0.30;;;32.30;67.00;;;;;;5030968;28;20481;-60
2022/08/12 11:11:19;;;;;;;0.40;0.40;;;32.20;65.60;;;;;;5030613;28;20434;-60
2022/08/12 11:14:18;;;;;;;0.30;0.30;;;31.80;66.20;;;;;;5030049;28;20434;-60
2022/08/12 11:17:07;;;;;;;0.32;0.32;;;31.60;65.60;;;;;;5028835;28;20423;-60
2022/08/12 11:19:54;;;;;;;0.30;0.30;;;31.80;65.30;;;;;;5030803;28;20414;-60
2022/08/12 11:22:24;;;;;;;0.60;0.50;;;31.90;65.50;;;;;;5030339;28;20430;-60
2022/08/12 11:24:55;;;;;;;0.43;0.43;;;31.60;66.40;;;;;;5024568;28;20432;-61
2022/08/12 11:27:24;;;;;;;0.32;0.32;;;30.80;65.80;;;;;;5010248;28;20436;-60
2022/08/12 11:29:55;;;;;;;0.30;0.30;;;30.60;67.70;;;;;;5010440;28;20433;-60
2022/08/12 11:32:33;;;;;;;0.30;0.30;;;30.70;68.40;;;;;;5010478;28;20979;-60
2022/08/12 11:35:05;;;;;;;0.30;0.30;;;30.70;67.50;;;;;;5010024;28;20472;-60
2022/08/12 11:37:37;;;;;;;0.40;0.40;;;30.70;67.30;;;;;;5010017;28;20799;-60
2022/08/12 11:40:24;;;;;;;0.30;0.30;;;30.80;67.60;;;;;;5010649;28;20496;-60
2022/08/12 11:42:51;;;;;;;0.30;0.30;;;30.70;67.70;;;;;;5010219;28;20440;-60
2022/08/12 11:45:18;;;;;;;0.28;0.28;;;30.50;68.60;;;;;;5008979;28;20429;-60
2022/08/12 11:47:45;;;;;;;0.32;0.32;;;30.60;67.60;;;;;;5010333;28;20465;-60
2022/08/12 11:50:19;;;;;;;0.45;0.45;;;30.40;69.50;;;;;;5009985;28;20436;-59
2022/08/12 11:52:47;;;;;;;0.40;0.40;;;30.20;68.00;;;;;;5009985;28;20446;-60
2022/08/12 11:55:23;;;;;;;0.57;0.40;;;30.60;68.00;;;;;;5018680;28;20951;-59
2022/08/12 11:57:53;;;;;;;0.30;0.30;;;31.00;68.30;;;;;;5029802;28;20517;-59
2022/08/12 12:00:42;;;;;;;0.40;0.40;;;31.10;67.60;;;;;;5055737;28;20462;-60
2022/08/12 12:03:29;;;;;;;0.80;0.40;;;31.60;67.60;;;;;;5029226;28;20506;-61
2022/08/12 12:06:21;;;;;;;0.37;0.37;;;32.10;66.40;;;;;;5029829;28;20950;-61
2022/08/12 12:08:49;;;;;;;0.40;0.40;;;32.30;65.50;;;;;;5015363;28;20907;-60
2022/08/12 12:11:20;;;;;;;0.40;0.40;;;32.50;66.00;;;;;;5009776;28;20512;-60
2022/08/12 12:13:48;;;;;;;0.25;0.25;;;32.40;66.60;;;;;;5030222;28;20957;-60
2022/08/12 12:16:36;;;;;;;0.30;0.30;;;31.70;66.40;;;;;;5044951;28;20425;-59
2022/08/12 12:19:09;;;;;;;0.40;0.40;;;31.00;66.40;;;;;;5049508;28;20432;-60
2022/08/12 12:21:37;;;;;;;0.40;0.40;;;30.50;66.40;;;;;;5049231;28;20429;-60
2022/08/12 12:24:18;;;;;;;0.30;0.30;;;30.40;67.40;;;;;;5027833;28;20481;-60
2022/08/12 12:26:51;;;;;;;0.30;0.30;;;30.60;67.40;;;;;;5029711;28;20434;-60
2022/08/12 12:29:28;;;;;;;0.30;0.30;;;30.70;66.50;;;;;;5028442;28;20481;-59
2022/08/12 12:32:15;;;;;;;0.30;0.30;;;31.00;67.60;;;;;;5029601;28;20423;-62
2022/08/12 12:34:45;;;;;;;0.40;0.40;;;31.60;65.60;;;;;;5018925;28;20428;-60
2022/08/12 12:37:32;;;;;;;0.43;0.43;;;32.00;65.60;;;;;;5013924;28;20434;-60
2022/08/12 12:40:19;;;;;;;0.30;0.30;;;32.00;65.50;;;;;;5013409;28;20428;-60
2022/08/12 12:42:46;;;;;;;0.35;0.30;;;31.50;67.00;;;;;;5013525;28;20428;-59
2022/08/12 12:45:25;;;;;;;0.30;0.30;;;31.00;67.40;;;;;;5042244;28;20455;-60
2022/08/12 12:48:07;;;;;;;0.40;0.40;;;31.30;66.80;;;;;;5013810;28;20436;-60
2022/08/12 12:50:39;;;;;;;0.50;0.50;;;31.70;66.60;;;;;;5025429;28;20470;-59
2022/08/12 12:53:20;;;;;;;0.70;0.40;;;32.30;66.00;;;;;;5028921;28;20432;-60
2022/08/12 12:56:21;;;;;;;0.30;0.30;;;32.50;65.70;;;;;;5013466;28;20432;-60
2022/08/12 12:59:02;;;;;;;0.40;0.40;;;32.70;64.90;;;;;;5012941;28;20878;-61
2022/08/12 13:01:29;;;;;;;0.33;0.33;;;32.60;65.30;;;;;;5044996;28;20436;-60
2022/08/12 13:03:59;;;;;;;0.30;0.30;;;32.50;65.50;;;;;;5045860;28;20453;-60
2022/08/12 13:06:29;;;;;;;0.40;0.40;;;32.30;64.50;;;;;;5032801;28;20430;-60
2022/08/12 13:09:00;;;;;;;0.40;0.40;;;32.20;65.20;;;;;;5032965;28;20900;-60
2022/08/12 13:11:32;;;;;;;0.35;0.35;;;32.60;64.50;;;;;;5032695;28;20442;-60
2022/08/12 13:14:12;;;;;;;0.30;0.30;;;33.00;63.60;;;;;;5034309;28;20434;-60
2022/08/12 13:17:02;;;;;;;0.35;0.35;;;33.10;64.90;;;;;;5032855;28;20435;-59
2022/08/12 13:19:35;;;;;;;0.40;0.40;;;32.90;64.50;;;;;;5030325;28;20457;-60
2022/08/12 13:22:16;;;;;;;0.32;0.32;;;32.80;64.10;;;;;;5032562;28;20794;-60
2022/08/12 13:24:49;;;;;;;0.32;0.32;;;33.40;65.30;;;;;;5019951;28;20433;-60
2022/08/12 13:27:20;;;;;;;0.40;0.40;;;33.10;63.80;;;;;;5012964;28;20436;-60
2022/08/12 13:29:47;;;;;;;0.40;0.40;;;34.00;63.00;;;;;;5012734;28;20482;-60
2022/08/12 13:32:14;;;;;;;0.40;0.40;;;34.20;63.20;;;;;;5012337;28;20440;-60
2022/08/12 13:34:53;;;;;;;0.30;0.30;;;33.10;62.60;;;;;;5012186;28;20498;-61
2022/08/12 13:37:51;;;;;;;0.30;0.30;;;32.90;63.40;;;;;;5012137;28;20432;-60
2022/08/12 13:40:33;;;;;;;0.38;0.38;;;33.20;64.00;;;;;;5011495;28;20970;-60
2022/08/12 13:43:05;;;;;;;0.30;0.30;;;33.70;63.40;;;;;;5011968;28;20927;-60
2022/08/12 13:45:34;;;;;;;0.40;0.40;;;33.50;64.20;;;;;;5011505;28;20440;-60
2022/08/12 13:48:03;;;;;;;0.40;0.40;;;33.80;63.70;;;;;;5011999;28;20424;-61
2022/08/12 13:50:40;;;;;;;0.45;0.45;;;34.20;63.20;;;;;;5042204;28;20464;-61
2022/08/12 13:53:10;;;;;;;0.30;0.30;;;35.00;62.50;;;;;;5012810;28;20428;-62
2022/08/12 13:55:52;;;;;;;0.40;0.40;;;35.40;61.80;;;;;;5014874;28;20436;-61
2022/08/12 13:58:29;;;;;;;0.40;0.40;;;34.70;62.60;;;;;;5012615;28;20439;-60
2022/08/12 14:01:03;;;;;;;0.40;0.40;;;34.10;62.50;;;;;;5018492;28;20424;-61
2022/08/12 14:03:37;;;;;;;0.50;0.50;;;34.00;62.40;;;;;;5031464;28;20431;-60
2022/08/12 14:06:18;;;;;;;0.40;0.40;;;33.80;64.10;;;;;;5031641;28;20427;-59
2022/08/12 14:08:49;;;;;;;0.40;0.40;;;33.60;62.30;;;;;;5031786;28;20494;-60
2022/08/12 14:11:17;;;;;;;0.45;0.45;;;33.80;62.50;;;;;;5031438;28;20512;-62
2022/08/12 14:13:56;;;;;;;0.30;0.30;;;33.80;62.10;;;;;;5031264;28;20441;-60
2022/08/12 14:16:39;;;;;;;0.40;0.40;;;34.20;61.70;;;;;;5031476;28;20431;-60
2022/08/12 14:19:16;;;;;;;0.32;0.32;;;34.70;62.40;;;;;;5031586;28;20431;-60
2022/08/12 14:21:51;;;;;;;0.40;0.40;;;34.00;62.50;;;;;;5031536;28;20973;-60
2022/08/12 14:24:30;;;;;;;0.20;0.20;;;33.70;63.20;;;;;;5011283;28;20440;-60
2022/08/12 14:26:56;;;;;;;0.40;0.40;;;33.80;63.70;;;;;;5011128;28;20795;-60
2022/08/12 14:29:28;;;;;;;0.30;0.30;;;34.10;63.40;;;;;;5011496;28;20795;-60
2022/08/12 14:32:17;;;;;;;0.45;0.45;;;34.80;61.30;;;;;;5011817;28;20428;-60
2022/08/12 14:34:55;;;;;;;0.50;0.50;;;35.70;61.20;;;;;;5010943;28;20432;-61
2022/08/12 14:37:22;;;;;;;0.50;0.50;;;36.50;61.30;;;;;;5010491;28;20494;-61
2022/08/12 14:40:10;;;;;;;0.40;0.40;;;37.00;60.50;;;;;;5011748;28;20776;-61
2022/08/12 14:42:44;;;;;;;0.40;0.40;;;35.50;60.00;;;;;;5030697;28;20431;-61
2022/08/12 14:45:12;;;;;;;0.30;0.30;;;35.30;61.20;;;;;;5030761;28;20461;-61
2022/08/12 14:47:52;;;;;;;0.40;0.40;;;34.30;61.40;;;;;;5031026;28;20467;-61
2022/08/12 14:50:24;;;;;;;0.40;0.40;;;35.00;62.50;;;;;;5031084;28;20431;-60
2022/08/12 14:53:13;;;;;;;0.40;0.40;;;35.20;61.60;;;;;;5025233;28;20425;-60
2022/08/12 14:56:01;;;;;;;0.38;0.38;;;35.70;61.40;;;;;;5011024;28;20432;-61
2022/08/12 15:01:49;;;;;;;0.30;0.30;;;37.70;59.10;;;;;;5010985;28;20432;-61
2022/08/12 15:04:24;;;;;;;0.40;0.40;;;37.70;58.80;;;;;;5010449;28;20536;-60
2022/08/12 15:06:53;;;;;;;0.52;0.52;;;35.80;60.40;;;;;;5010935;28;20470;-60
2022/08/12 15:09:25;;;;;;;0.40;0.40;;;33.70;62.20;;;;;;5011014;28;20467;-60
2022/08/12 15:12:01;;;;;;;0.60;0.30;;;32.40;64.00;;;;;;5010948;28;20447;-60
2022/08/12 15:14:32;;;;;;;0.30;0.30;;;31.60;64.70;;;;;;5009831;28;20433;-61
2022/08/12 15:17:05;;;;;;;0.30;0.30;;;31.30;65.50;;;;;;5011082;28;20516;-60
2022/08/12 15:19:32;;;;;;;0.38;0.38;;;31.10;66.60;;;;;;5010539;28;20527;-59
2022/08/12 15:22:19;;;;;;;0.30;0.30;;;31.00;65.60;;;;;;5025215;28;20427;-61
2022/08/12 15:25:05;;;;;;;0.30;0.30;;;31.60;66.30;;;;;;5029944;28;20484;-61
2022/08/12 15:27:41;;;;;;;0.40;0.40;;;32.60;64.30;;;;;;5028583;28;20430;-60
2022/08/12 15:30:38;;;;;;;0.40;0.40;;;33.90;64.10;;;;;;5010782;28;20432;-61